Waterloo Regional Airport
KALO : rendu visible

Aérodrome :











RETROUVEZ-NOUS SUR...

 
LOGIN :

S'inscrire | Disclaimer

   EN    FR    IT 

 









Légende :    VFR   VFR Marginal   IFR   IFR Intensif   IFR Très Intensif
Visi : 
Plafond : 
>= 8 km
>= 3000ft
5 à 8 km
1000 à 3000 ft
1500m à 5 km
500 à 1000 ft
800 à 1500m
200 à 500 ft
< 800m
< 200 ft
Symboles :   Orages  Brouillard  Fortes neiges  Fortes précipitations  Vent > 20 kt






- Altitude de l'aérodrome : 873 ft
- Code IATA : ALO


KALO - Waterloo Regional

DERNIER METAR :
  • 150354Z AUTO 32010KT 10SM CLR M13/M17 A3002 RMK AO2 SLP182 T11331167

METARs EXPIRÉS :
  • 150254Z AUTO 31014KT 10SM FEW009 M13/M16 A3000 RMK AO2 SLP177 T11281161 51019
  • 150221Z AUTO 30012G18KT 10SM SCT008 M12/M16 A3000 RMK AO2 T11221156
  • 150154Z AUTO 29010KT 10SM CLR M12/M16 A3000 RMK AO2 SLP175 T11171156

TAF KALO
Valide du 15 à 00h jusqu'au 16 à 00h UTC


142333Z 1500/1524 33010KT P6SM SKC
FM150300 34005KT P6SM BKN100
FM151500 VRB03KT P6SM BKN100



MET'MAP, la Météo Aéronautique d'un coup d'oeil ! - Copyright ORBIFLY Décembre 2007 - Disclaimer

ORBIFLY MET'MAP TEAM :

Programmation & Développement : Alexandra Zaïnal
Sur une idée originale de : Baudouin d'Aumeries
Assistance à la programmation : Marc-Olivier Méhu
Soutien technique & logistique : Manuel Goepfert

Contact : metmap@orbifly.com




SOURCES & CREDITS :

   NOAA       Earth
Advisory